createdAt,value
2023-03-26T00:00:44.981Z,79.65
2023-03-26T00:03:39.214Z,79.66
2023-03-26T00:06:30.891Z,79.55
2023-03-26T00:09:19.796Z,79.61
2023-03-26T00:12:08.376Z,79.62
2023-03-26T00:14:57.247Z,79.65
2023-03-26T00:17:49.065Z,79.68
2023-03-26T00:20:38.495Z,79.53
2023-03-26T00:23:29.246Z,79.79
2023-03-26T00:26:18.952Z,79.82
2023-03-26T00:29:09.988Z,79.89
2023-03-26T00:31:59.220Z,79.89
2023-03-26T00:34:47.842Z,79.91
2023-03-26T00:37:37.319Z,79.85
2023-03-26T00:40:26.194Z,79.90
2023-03-26T00:43:21.021Z,79.97
2023-03-26T00:46:09.688Z,79.90
2023-03-26T00:48:59.922Z,79.91
2023-03-26T00:51:48.691Z,79.86
2023-03-26T00:54:37.366Z,79.84
2023-03-26T00:57:35.829Z,79.80
2023-03-26T01:05:44.268Z,79.78
2023-03-26T01:08:40.634Z,79.69
2023-03-26T01:11:34.976Z,79.62
2023-03-26T01:14:26.938Z,79.61
2023-03-26T01:17:16.276Z,79.54
2023-03-26T01:20:15.170Z,79.49
2023-03-26T01:23:06.421Z,79.51
2023-03-26T01:26:00.441Z,79.51
2023-03-26T01:28:54.693Z,79.43
2023-03-26T01:31:57.382Z,79.45
2023-03-26T01:35:05.179Z,79.51
2023-03-26T01:38:46.850Z,79.49
2023-03-26T01:41:47.645Z,79.45
2023-03-26T01:44:51.211Z,79.43
2023-03-26T01:47:42.330Z,79.44
2023-03-26T01:50:31.630Z,79.40
2023-03-26T01:53:20.326Z,79.45
2023-03-26T01:56:11.046Z,79.62
2023-03-26T01:59:09.075Z,79.82
2023-03-26T02:02:15.620Z,79.71
2023-03-26T02:05:20.978Z,79.84
2023-03-26T02:08:31.983Z,79.73
2023-03-26T02:11:21.583Z,79.64
2023-03-26T02:14:15.031Z,79.74
2023-03-26T02:17:03.878Z,79.61
2023-03-26T02:19:54.536Z,79.43
2023-03-26T02:22:45.688Z,79.45
2023-03-26T02:25:36.874Z,79.40
2023-03-26T02:28:25.806Z,79.54
2023-03-26T02:31:16.315Z,79.51
2023-03-26T02:34:05.305Z,79.56
2023-03-26T02:36:57.451Z,79.64
2023-03-26T02:39:47.572Z,79.63
2023-03-26T02:42:48.912Z,79.32
2023-03-26T02:45:37.534Z,79.37
2023-03-26T02:48:29.162Z,79.23
2023-03-26T02:51:27.432Z,79.23
2023-03-26T02:54:25.739Z,79.18
2023-03-26T02:57:43.549Z,79.25
2023-03-26T03:00:33.874Z,79.14
2023-03-26T03:03:42.705Z,79.20
2023-03-26T03:06:53.149Z,79.40
2023-03-26T03:09:42.150Z,79.31
2023-03-26T03:13:06.005Z,79.52
2023-03-26T03:15:55.208Z,79.57
2023-03-26T03:18:44.332Z,79.45
2023-03-26T03:21:33.055Z,79.46
2023-03-26T03:24:21.925Z,79.38
2023-03-26T03:27:10.612Z,79.47
2023-03-26T03:30:13.566Z,79.46
2023-03-26T03:33:25.324Z,79.46
2023-03-26T03:36:20.376Z,79.57
2023-03-26T03:39:12.023Z,79.62
2023-03-26T03:42:01.523Z,79.49
2023-03-26T03:44:50.623Z,79.47
2023-03-26T03:48:03.321Z,79.62
2023-03-26T03:50:58.011Z,79.52
2023-03-26T03:53:50.522Z,79.53
2023-03-26T03:56:51.120Z,79.79
2023-03-26T04:00:00.397Z,79.59
2023-03-26T04:02:54.510Z,79.66
2023-03-26T04:05:55.195Z,79.77
2023-03-26T04:08:46.227Z,79.80
2023-03-26T04:11:35.070Z,79.97
2023-03-26T04:14:43.152Z,80.23
2023-03-26T04:17:42.872Z,80.35
2023-03-26T04:20:33.926Z,80.30
2023-03-26T04:23:26.736Z,80.55
2023-03-26T04:26:21.071Z,80.85
2023-03-26T04:29:34.734Z,80.81
2023-03-26T04:32:34.217Z,80.71
2023-03-26T04:35:24.060Z,80.59
2023-03-26T04:38:16.941Z,80.57
2023-03-26T04:41:12.021Z,80.50
2023-03-26T04:44:06.956Z,80.43
2023-03-26T04:47:04.277Z,80.45
2023-03-26T04:49:58.644Z,80.36
2023-03-26T04:52:47.420Z,80.33
2023-03-26T04:56:06.835Z,80.35
2023-03-26T04:59:19.632Z,80.54
2023-03-26T05:02:08.452Z,80.66
2023-03-26T05:05:08.756Z,80.69
2023-03-26T05:07:57.770Z,80.97
2023-03-26T05:10:47.059Z,81.16
2023-03-26T05:13:42.989Z,81.26
2023-03-26T05:16:34.426Z,81.37
2023-03-26T05:19:28.310Z,81.54
2023-03-26T05:22:17.303Z,81.38
2023-03-26T05:25:25.018Z,81.66
2023-03-26T05:28:14.141Z,81.55
2023-03-26T05:31:12.536Z,81.57
2023-03-26T05:34:02.326Z,81.42
2023-03-26T05:36:50.975Z,81.30
2023-03-26T05:40:04.405Z,81.21
2023-03-26T05:43:05.027Z,81.16
2023-03-26T05:46:04.390Z,80.97
2023-03-26T05:48:54.090Z,81.01
2023-03-26T05:51:43.535Z,80.89
2023-03-26T05:54:46.803Z,80.64
2023-03-26T05:57:54.373Z,80.56
2023-03-26T06:01:06.320Z,80.13
2023-03-26T06:04:16.312Z,79.93
2023-03-26T06:07:12.065Z,80.35
2023-03-26T06:10:04.204Z,80.40
2023-03-26T06:12:52.840Z,80.30
2023-03-26T06:15:42.597Z,79.74
2023-03-26T06:18:42.280Z,79.42
2023-03-26T06:22:00.585Z,78.74
2023-03-26T06:24:57.029Z,77.90
2023-03-26T06:28:05.866Z,77.85
2023-03-26T06:31:13.433Z,78.15
2023-03-26T06:34:10.883Z,78.25
2023-03-26T06:36:59.573Z,78.01
2023-03-26T06:39:48.891Z,77.81
2023-03-26T06:43:07.580Z,77.09
2023-03-26T06:46:12.613Z,76.92
2023-03-26T06:49:19.610Z,77.03
2023-03-26T06:52:27.603Z,75.67
2023-03-26T06:55:31.386Z,75.55
2023-03-26T06:58:30.153Z,75.77
2023-03-26T07:01:37.242Z,75.53
2023-03-26T07:04:44.622Z,75.67
2023-03-26T07:08:05.852Z,76.25
2023-03-26T07:11:13.413Z,75.83
2023-03-26T07:14:04.699Z,76.09
2023-03-26T07:17:23.067Z,75.55
2023-03-26T07:20:16.543Z,74.34
2023-03-26T07:23:06.562Z,74.02
2023-03-26T07:26:29.091Z,74.01
2023-03-26T07:29:37.693Z,73.86
2023-03-26T07:32:56.079Z,74.00
2023-03-26T07:36:13.759Z,74.12
2023-03-26T07:39:54.923Z,73.10
2023-03-26T07:43:19.520Z,73.05
2023-03-26T07:46:13.686Z,72.52
2023-03-26T07:49:13.243Z,72.91
2023-03-26T07:52:21.573Z,72.81
2023-03-26T07:56:00.048Z,73.02
2023-03-26T07:59:29.712Z,73.05
2023-03-26T08:03:02.874Z,72.52
2023-03-26T08:06:29.498Z,72.51
2023-03-26T08:09:38.898Z,72.01
2023-03-26T08:13:19.473Z,72.21
2023-03-26T08:16:16.863Z,72.70
2023-03-26T08:19:38.395Z,72.53
2023-03-26T08:22:31.701Z,72.26
2023-03-26T08:25:33.241Z,72.83
2023-03-26T08:28:46.184Z,72.32
2023-03-26T08:31:39.061Z,71.71
2023-03-26T08:34:28.247Z,71.24
2023-03-26T08:37:16.848Z,70.48
2023-03-26T08:40:06.825Z,70.52
2023-03-26T08:43:33.518Z,70.74
2023-03-26T08:46:54.373Z,70.74
2023-03-26T08:49:49.395Z,70.25
2023-03-26T08:52:57.108Z,69.92
2023-03-26T08:55:48.387Z,70.22
2023-03-26T08:59:16.820Z,70.74
2023-03-26T09:02:11.726Z,70.80
2023-03-26T09:05:19.243Z,70.35
2023-03-26T09:08:20.513Z,70.50
2023-03-26T09:11:27.443Z,68.71
2023-03-26T09:14:16.075Z,67.84
2023-03-26T09:17:36.940Z,69.19
2023-03-26T09:20:48.331Z,69.47
2023-03-26T09:24:03.368Z,68.45
2023-03-26T09:26:55.092Z,68.32
2023-03-26T09:30:16.398Z,67.89
2023-03-26T09:33:23.419Z,67.25
2023-03-26T09:36:18.503Z,67.97
2023-03-26T09:39:16.543Z,69.33
2023-03-26T09:42:09.053Z,70.45
2023-03-26T09:45:16.862Z,71.29
2023-03-26T09:48:59.909Z,71.91
2023-03-26T09:52:11.958Z,72.46
2023-03-26T09:55:34.890Z,73.02
2023-03-26T09:58:27.288Z,74.44
2023-03-26T10:01:32.342Z,74.93
2023-03-26T10:05:02.315Z,75.37
2023-03-26T10:08:07.600Z,75.79
2023-03-26T10:11:03.371Z,76.60
2023-03-26T10:14:18.647Z,76.77
2023-03-26T10:17:28.462Z,77.13
2023-03-26T10:20:34.274Z,77.74
2023-03-26T10:23:34.862Z,77.71
2023-03-26T10:27:08.732Z,78.22
2023-03-26T10:30:19.905Z,78.56
2023-03-26T10:33:35.525Z,78.98
2023-03-26T10:36:35.744Z,79.81
2023-03-26T10:39:43.623Z,79.53
2023-03-26T10:42:47.361Z,79.26
2023-03-26T10:45:49.494Z,78.86
2023-03-26T10:48:47.759Z,79.01
2023-03-26T10:51:51.606Z,79.01
2023-03-26T10:55:02.855Z,79.09
2023-03-26T10:57:58.609Z,78.98
2023-03-26T11:00:56.605Z,79.05
2023-03-26T11:03:54.966Z,78.49
2023-03-26T11:07:05.291Z,79.16
2023-03-26T11:09:59.121Z,79.23
2023-03-26T11:13:13.112Z,79.22
2023-03-26T11:16:10.085Z,79.18
2023-03-26T11:19:31.219Z,79.13
2023-03-26T11:22:41.381Z,79.66
2023-03-26T11:25:36.449Z,79.95
2023-03-26T11:29:03.989Z,81.24
2023-03-26T11:32:13.960Z,81.67
2023-03-26T11:35:43.930Z,80.14
2023-03-26T11:38:38.011Z,79.33
2023-03-26T11:41:31.542Z,79.14
2023-03-26T11:45:05.682Z,79.04
2023-03-26T11:48:11.989Z,78.72
2023-03-26T11:51:06.191Z,78.18
2023-03-26T11:53:57.896Z,78.02
2023-03-26T11:57:05.293Z,77.95
2023-03-26T12:00:17.586Z,77.03
2023-03-26T12:03:15.539Z,76.34
2023-03-26T12:06:04.916Z,75.67
2023-03-26T12:08:53.442Z,75.89
2023-03-26T12:11:42.418Z,75.82
2023-03-26T12:14:34.699Z,75.45
2023-03-26T12:17:33.103Z,75.11
2023-03-26T12:20:27.663Z,75.13
2023-03-26T12:23:37.521Z,74.75
2023-03-26T12:26:42.739Z,74.37
2023-03-26T12:29:34.746Z,74.63
2023-03-26T12:32:32.580Z,73.03
2023-03-26T12:35:35.096Z,70.99
2023-03-26T12:38:40.711Z,70.01
2023-03-26T12:44:42.403Z,69.04
2023-03-26T12:44:58.936Z,68.73
2023-03-26T12:48:01.576Z,68.07
2023-03-26T12:50:58.016Z,67.83
2023-03-26T12:54:00.005Z,66.73
2023-03-26T13:00:27.114Z,66.69
2023-03-26T13:02:23.989Z,65.67
2023-03-26T13:03:37.999Z,66.96
2023-03-26T13:07:00.388Z,66.20
2023-03-26T13:10:24.922Z,66.42
2023-03-26T13:13:36.484Z,66.37
2023-03-26T13:16:42.543Z,66.63
2023-03-26T13:20:00.453Z,66.80
2023-03-26T13:23:17.275Z,67.71
2023-03-26T13:26:36.791Z,66.03
2023-03-26T13:29:51.785Z,66.01
2023-03-26T13:32:59.813Z,66.17
2023-03-26T13:36:22.511Z,64.04
2023-03-26T13:39:27.883Z,63.33
2023-03-26T13:42:37.824Z,63.24
2023-03-26T13:45:51.206Z,63.38
2023-03-26T13:48:48.418Z,62.60
2023-03-26T13:51:37.416Z,62.01
2023-03-26T13:54:48.052Z,62.64
2023-03-26T13:57:43.317Z,63.04
2023-03-26T14:00:47.874Z,62.79
2023-03-26T14:03:43.494Z,63.21
2023-03-26T14:06:57.356Z,63.51
2023-03-26T14:10:08.454Z,63.96
2023-03-26T14:13:06.820Z,63.52
2023-03-26T14:16:21.045Z,63.29
2023-03-26T14:19:12.714Z,63.51
2023-03-26T14:22:28.666Z,63.49
2023-03-26T14:25:23.971Z,63.80
2023-03-26T14:28:34.351Z,64.16
2023-03-26T14:32:24.250Z,63.99
2023-03-26T14:35:28.626Z,64.09
2023-03-26T14:38:51.154Z,64.63
2023-03-26T14:42:24.790Z,65.28
2023-03-26T14:45:37.647Z,66.11
2023-03-26T14:48:44.291Z,66.85
2023-03-26T14:51:59.240Z,66.96
2023-03-26T14:54:53.496Z,67.21
2023-03-26T15:02:34.801Z,66.57
2023-03-26T15:06:03.902Z,66.04
2023-03-26T15:09:37.313Z,65.41
2023-03-26T15:12:47.313Z,65.00
2023-03-26T15:16:07.111Z,65.11
2023-03-26T15:19:14.195Z,64.78
2023-03-26T15:22:21.451Z,64.60
2023-03-26T15:25:24.483Z,64.89
2023-03-26T15:28:50.266Z,64.81
2023-03-26T15:31:47.644Z,64.90
2023-03-26T15:35:09.904Z,64.78
2023-03-26T15:38:09.106Z,64.54
2023-03-26T15:41:24.994Z,64.62
2023-03-26T15:44:38.091Z,64.56
2023-03-26T15:47:54.431Z,64.63
2023-03-26T15:51:04.340Z,64.76
2023-03-26T15:54:16.640Z,65.32
2023-03-26T15:57:18.218Z,65.60
2023-03-26T16:00:23.543Z,65.67
2023-03-26T16:03:30.906Z,65.81
2023-03-26T16:06:48.442Z,65.93
2023-03-26T16:10:10.907Z,66.08
2023-03-26T16:13:28.003Z,66.25
2023-03-26T16:16:16.536Z,66.43
2023-03-26T16:19:49.919Z,66.59
2023-03-26T16:22:53.482Z,66.70
2023-03-26T16:26:01.223Z,66.59
2023-03-26T16:28:53.446Z,66.94
2023-03-26T16:32:10.079Z,67.22
2023-03-26T16:35:09.124Z,67.46
2023-03-26T16:38:06.072Z,67.26
2023-03-26T16:41:15.283Z,67.55
2023-03-26T16:44:52.867Z,67.60
2023-03-26T16:47:55.369Z,67.89
2023-03-26T16:50:56.163Z,67.91
2023-03-26T16:53:46.020Z,67.95
2023-03-26T16:56:51.133Z,68.07
2023-03-26T17:00:19.071Z,68.13
2023-03-26T17:03:23.007Z,68.72
2023-03-26T17:06:17.581Z,69.00
2023-03-26T17:09:25.159Z,69.25
2023-03-26T17:12:31.419Z,69.53
2023-03-26T17:15:48.560Z,69.81
2023-03-26T17:19:03.457Z,70.12
2023-03-26T17:22:12.961Z,70.14
2023-03-26T17:25:20.260Z,70.23
2023-03-26T17:28:37.597Z,70.36
2023-03-26T17:31:49.377Z,70.39
2023-03-26T17:34:38.557Z,70.70
2023-03-26T17:37:43.393Z,70.68
2023-03-26T17:40:55.692Z,70.89
2023-03-26T17:43:50.274Z,71.07
2023-03-26T17:46:49.713Z,71.09
2023-03-26T17:49:41.086Z,71.41
2023-03-26T17:52:48.246Z,71.33
2023-03-26T17:55:38.807Z,71.63
2023-03-26T17:58:29.624Z,71.53
2023-03-26T18:01:37.239Z,71.67
2023-03-26T18:04:33.605Z,71.85
2023-03-26T18:07:59.400Z,71.96
2023-03-26T18:11:10.586Z,72.16
2023-03-26T18:14:17.743Z,72.35
2023-03-26T18:17:07.099Z,72.55
2023-03-26T18:20:06.441Z,72.62
2023-03-26T18:22:56.162Z,72.82
2023-03-26T18:25:52.580Z,72.87
2023-03-26T18:28:54.387Z,72.90
2023-03-26T18:31:44.305Z,72.89
2023-03-26T18:34:34.346Z,73.11
2023-03-26T18:37:36.549Z,73.00
2023-03-26T18:40:29.153Z,73.00
2023-03-26T18:43:34.420Z,73.21
2023-03-26T18:46:24.655Z,73.18
2023-03-26T18:49:15.687Z,73.15
2023-03-26T18:52:05.069Z,73.24
2023-03-26T18:54:54.381Z,73.59
2023-03-26T18:57:43.674Z,73.64
2023-03-26T19:00:32.277Z,73.83
2023-03-26T19:03:24.460Z,74.08
2023-03-26T19:06:15.027Z,74.21
2023-03-26T19:09:23.867Z,74.15
2023-03-26T19:12:29.326Z,74.27
2023-03-26T19:15:18.662Z,74.65
2023-03-26T19:18:14.041Z,74.59
2023-03-26T19:21:04.624Z,74.79
2023-03-26T19:23:54.902Z,74.93
2023-03-26T19:26:49.023Z,74.85
2023-03-26T19:29:38.190Z,74.99
2023-03-26T19:32:32.996Z,75.07
2023-03-26T19:35:23.762Z,75.10
2023-03-26T19:38:22.905Z,75.36
2023-03-26T19:41:43.890Z,75.45
2023-03-26T19:44:33.424Z,75.20
2023-03-26T19:47:32.153Z,75.17
2023-03-26T19:50:25.961Z,75.35
2023-03-26T19:53:32.957Z,75.69
2023-03-26T19:56:23.348Z,75.83
2023-03-26T19:59:11.983Z,75.67
2023-03-26T20:02:00.922Z,76.06
2023-03-26T20:04:50.135Z,76.33
2023-03-26T20:07:39.493Z,76.09
2023-03-26T20:10:28.261Z,75.94
2023-03-26T20:13:17.865Z,75.68
2023-03-26T20:16:13.238Z,75.71
2023-03-26T20:19:05.444Z,75.71
2023-03-26T20:21:54.661Z,75.81
2023-03-26T20:24:47.136Z,76.22
2023-03-26T20:27:35.776Z,76.56
2023-03-26T20:33:20.708Z,76.53
2023-03-26T20:36:13.823Z,76.69
2023-03-26T20:39:23.643Z,76.74
2023-03-26T20:42:15.453Z,76.80
2023-03-26T20:45:20.270Z,77.01
2023-03-26T20:48:10.632Z,77.67
2023-03-26T20:50:59.163Z,78.10
2023-03-26T20:53:51.437Z,78.34
2023-03-26T20:56:41.731Z,78.38
2023-03-26T20:59:30.661Z,78.40
2023-03-26T21:02:20.446Z,78.42
2023-03-26T21:05:15.145Z,78.33
2023-03-26T21:08:03.868Z,78.40
2023-03-26T21:10:53.113Z,78.38
2023-03-26T21:14:01.960Z,78.26
2023-03-26T21:16:51.807Z,78.17
2023-03-26T21:19:40.702Z,78.09
2023-03-26T21:22:39.901Z,78.33
2023-03-26T21:25:40.436Z,78.35
2023-03-26T21:28:42.300Z,78.41
2023-03-26T21:31:39.112Z,78.32
2023-03-26T21:34:28.097Z,78.70
2023-03-26T21:37:19.029Z,78.81
2023-03-26T21:40:14.907Z,79.03
2023-03-26T21:43:04.062Z,79.13
2023-03-26T21:45:59.070Z,79.28
2023-03-26T21:48:47.853Z,79.59
2023-03-26T21:51:40.251Z,79.43
2023-03-26T21:54:31.690Z,79.47
2023-03-26T21:57:58.874Z,79.41
2023-03-26T22:01:03.515Z,79.55
2023-03-26T22:04:15.148Z,79.60
2023-03-26T22:07:10.567Z,79.92
2023-03-26T22:09:59.697Z,79.78
2023-03-26T22:12:48.529Z,79.94
2023-03-26T22:15:38.036Z,80.03
2023-03-26T22:18:32.255Z,79.94
2023-03-26T22:21:23.680Z,80.06
2023-03-26T22:24:15.085Z,80.08
2023-03-26T22:27:04.340Z,80.01
2023-03-26T22:29:53.133Z,79.72
2023-03-26T22:32:44.028Z,79.96
2023-03-26T22:35:32.673Z,80.14
2023-03-26T22:38:21.778Z,80.42
2023-03-26T22:41:10.995Z,80.44
2023-03-26T22:44:09.266Z,80.21
2023-03-26T22:47:01.658Z,80.25
2023-03-26T22:49:52.894Z,80.58
2023-03-26T22:52:41.705Z,80.67
2023-03-26T22:55:31.576Z,80.62
2023-03-26T22:58:20.283Z,80.76
2023-03-26T23:01:18.096Z,80.75
2023-03-26T23:04:07.095Z,80.60
2023-03-26T23:06:56.732Z,80.73
2023-03-26T23:09:45.713Z,80.86
2023-03-26T23:12:35.058Z,80.83
2023-03-26T23:15:25.890Z,80.85
2023-03-26T23:18:17.308Z,80.69
2023-03-26T23:21:11.933Z,80.79
2023-03-26T23:24:01.308Z,80.96
2023-03-26T23:26:51.243Z,81.06
2023-03-26T23:29:40.392Z,81.19
2023-03-26T23:32:28.940Z,81.36
2023-03-26T23:35:17.993Z,81.38
2023-03-26T23:38:06.938Z,81.44
2023-03-26T23:40:57.805Z,81.49
2023-03-26T23:43:54.472Z,81.59
2023-03-26T23:46:44.606Z,81.65
2023-03-26T23:49:33.080Z,81.53
2023-03-26T23:52:22.061Z,81.55
2023-03-26T23:55:10.567Z,81.45
2023-03-26T23:57:59.284Z,81.39
